Terminal Aerodrome Forecast
Issued by NWS Wilmington, OH

Current Version | Previous Version | Graphics & Text | Print | Product List | Glossary On
Versions: 1 2 3 4 5 6 7 8 9 10 11 12 13 14 15 16 17 18 19 20
262
FTUS41 KILN 241130
TAFCMH
TAF
KCMH 241130Z 2412/2512 16009KT P6SM SCT035 WS020/21040KT
     FM241400 18012G18KT P6SM SCT035
     FM241600 19016G26KT P6SM SCT040
     FM250300 19014G20KT 5SM -SHRA VCTS OVC050CB
     FM250800 24014G22KT P6SM VCSH OVC025
     FM251000 27012G20KT P6SM OVC025=

USA.gov is the U.S. government's official web portal to all federal, state and local government web resources and services.